Time;durP1;ratioP1;P1;durP2;ratioP2;P2;SDS_P1;SDS_P2;PMS_P1;PMS_P2;Temp;Humidity;BMP_temperature;BMP_pressure;BME280_temperature;BME280_humidity;BME280_pressure;Samples;Min_cycle;Max_cycle;Signal;HPM_P1;HPM_P2
2023/01/15 00:01:30;;;;;;;32.37;30.47;;;;;;;;;;5081980;28;20453;-80
2023/01/15 00:03:58;;;;;;;32.10;30.30;;;;;;;;;;5079863;28;20486;-82
2023/01/15 00:06:27;;;;;;;33.70;31.70;;;;;;;;;;5081444;28;20443;-81
2023/01/15 00:08:55;;;;;;;35.30;33.20;;;;;;;;;;5083470;28;20446;-82
2023/01/15 00:11:22;;;;;;;34.40;32.07;;;;;;;;;;5082774;28;20563;-81
2023/01/15 00:13:49;;;;;;;33.43;31.43;;;;;;;;;;5085237;28;20415;-81
2023/01/15 00:16:18;;;;;;;36.40;34.40;;;;;;;;;;5085391;28;20966;-82
2023/01/15 00:18:45;;;;;;;29.40;27.30;;;;;;;;;;5085978;28;20210;-80
2023/01/15 00:21:12;;;;;;;30.83;28.40;;;;;;;;;;5082859;28;20922;-80
2023/01/15 00:29:12;;;;;;;28.13;26.13;;;;;;;;;;5082524;28;20497;-80
2023/01/15 00:31:40;;;;;;;26.80;24.70;;;;;;;;;;5082524;28;20454;-81
2023/01/15 00:34:07;;;;;;;26.13;24.43;;;;;;;;;;5085791;28;20456;-81
2023/01/15 00:36:36;;;;;;;26.17;24.47;;;;;;;;;;5081712;28;20485;-81
2023/01/15 00:39:05;;;;;;;27.23;25.40;;;;;;;;;;5080645;28;20820;-81
2023/01/15 00:41:32;;;;;;;28.30;26.50;;;;;;;;;;5081798;28;20514;-81
2023/01/15 00:43:59;;;;;;;28.17;26.47;;;;;;;;;;5083797;28;20456;-82
2023/01/15 00:46:27;;;;;;;27.03;25.33;;;;;;;;;;5083537;28;20548;-82
2023/01/15 00:48:54;;;;;;;27.70;26.00;;;;;;;;;;5083193;28;21084;-81
2023/01/15 00:51:21;;;;;;;27.23;25.45;;;;;;;;;;5083088;28;20446;-82
2023/01/15 00:53:48;;;;;;;25.07;23.43;;;;;;;;;;5079964;28;20623;-82
2023/01/15 00:56:17;;;;;;;26.08;24.48;;;;;;;;;;5079887;28;20424;-82
2023/01/15 00:58:45;;;;;;;25.63;23.70;;;;;;;;;;5080011;28;20213;-81
2023/01/15 01:01:12;;;;;;;27.80;26.20;;;;;;;;;;5081444;28;20210;-81
2023/01/15 01:03:39;;;;;;;27.50;25.80;;;;;;;;;;5086707;28;20439;-81
2023/01/15 01:06:06;;;;;;;27.57;25.90;;;;;;;;;;5087193;28;20245;-82
2023/01/15 01:08:33;;;;;;;29.98;28.27;;;;;;;;;;5083068;28;20448;-81
2023/01/15 01:11:04;;;;;;;29.17;27.42;;;;;;;;;;5082110;28;20251;-82
2023/01/15 01:13:33;;;;;;;30.52;28.83;;;;;;;;;;5081046;28;20210;-81
2023/01/15 01:16:00;;;;;;;30.95;29.05;;;;;;;;;;5080913;28;20210;-82
2023/01/15 01:18:28;;;;;;;34.53;32.60;;;;;;;;;;5080081;28;20265;-82
2023/01/15 01:20:55;;;;;;;37.78;35.65;;;;;;;;;;5085223;28;20227;-82
2023/01/15 01:23:23;;;;;;;41.35;39.15;;;;;;;;;;5090198;28;20225;-81
2023/01/15 01:25:50;;;;;;;45.15;42.75;;;;;;;;;;5088790;28;20233;-82
2023/01/15 01:28:18;;;;;;;44.20;41.90;;;;;;;;;;5087463;28;20206;-82
2023/01/15 01:30:46;;;;;;;45.25;42.95;;;;;;;;;;5088469;28;20205;-82
2023/01/15 01:33:13;;;;;;;46.55;44.15;;;;;;;;;;5090303;28;20200;-82
2023/01/15 01:35:40;;;;;;;47.00;44.60;;;;;;;;;;5085384;28;20559;-81
2023/01/15 01:38:07;;;;;;;49.33;46.85;;;;;;;;;;5086104;28;20494;-82
2023/01/15 01:40:34;;;;;;;55.00;52.35;;;;;;;;;;5084730;28;20229;-81
2023/01/15 01:43:01;;;;;;;58.40;55.60;;;;;;;;;;5087120;28;20743;-82
2023/01/15 01:45:30;;;;;;;59.92;56.83;;;;;;;;;;5083371;28;20204;-82
2023/01/15 01:48:00;;;;;;;62.15;59.25;;;;;;;;;;5082222;28;20256;-82
2023/01/15 01:50:28;;;;;;;63.50;60.40;;;;;;;;;;5084052;28;20185;-81
2023/01/15 01:52:58;;;;;;;61.08;58.10;;;;;;;;;;5084969;28;20483;-81
2023/01/15 01:55:25;;;;;;;71.22;67.90;;;;;;;;;;5084412;28;20210;-80
2023/01/15 01:57:54;;;;;;;68.57;65.47;;;;;;;;;;5081828;28;20697;-81
2023/01/15 02:00:22;;;;;;;70.00;66.60;;;;;;;;;;5082593;28;20420;-82
2023/01/15 02:02:50;;;;;;;65.60;62.50;;;;;;;;;;5081638;28;20206;-81
2023/01/15 02:05:22;;;;;;;66.53;63.42;;;;;;;;;;5081689;28;20205;-81
2023/01/15 02:07:49;;;;;;;67.88;64.68;;;;;;;;;;5081630;28;20225;-82
2023/01/15 02:10:16;;;;;;;64.35;61.25;;;;;;;;;;5081852;28;20683;-81
2023/01/15 02:12:46;;;;;;;67.25;64.05;;;;;;;;;;5082628;28;20268;-82
2023/01/15 02:15:15;;;;;;;62.85;59.75;;;;;;;;;;5080799;28;20641;-81
2023/01/15 02:17:44;;;;;;;63.83;60.72;;;;;;;;;;5082592;28;20731;-81
2023/01/15 02:20:22;;;;;;;61.53;58.17;;;;;;;;;;5082430;28;20259;-81
2023/01/15 02:22:56;;;;;;;60.85;57.65;;;;;;;;;;5082459;28;20218;-81
2023/01/15 02:25:25;;;;;;;59.17;56.28;;;;;;;;;;5083081;28;20206;-81
2023/01/15 02:27:56;;;;;;;59.90;56.90;;;;;;;;;;5081986;28;20218;-81
2023/01/15 02:30:26;;;;;;;57.80;54.90;;;;;;;;;;5082114;28;20205;-81
2023/01/15 02:32:54;;;;;;;58.95;55.95;;;;;;;;;;5084591;28;20224;-82
2023/01/15 02:35:28;;;;;;;59.90;56.90;;;;;;;;;;5083863;28;20251;-81
2023/01/15 02:37:59;;;;;;;58.00;55.10;;;;;;;;;;5087193;28;20225;-81
2023/01/15 02:40:27;;;;;;;56.10;53.30;;;;;;;;;;5082502;28;20219;-81
2023/01/15 02:42:55;;;;;;;53.50;50.78;;;;;;;;;;5082266;28;20204;-81
2023/01/15 02:45:25;;;;;;;52.55;49.85;;;;;;;;;;5082163;28;20259;-81
2023/01/15 02:47:54;;;;;;;54.97;52.13;;;;;;;;;;5082434;28;20235;-81
2023/01/15 02:50:23;;;;;;;57.92;55.03;;;;;;;;;;5081453;28;20254;-81
2023/01/15 02:52:52;;;;;;;57.28;54.17;;;;;;;;;;5081152;28;20221;-81
2023/01/15 02:55:22;;;;;;;56.42;53.63;;;;;;;;;;5081417;28;20201;-82
2023/01/15 02:57:49;;;;;;;58.78;55.80;;;;;;;;;;5082280;28;20270;-81
2023/01/15 03:00:19;;;;;;;54.58;51.75;;;;;;;;;;5081722;28;20210;-81
2023/01/15 03:02:50;;;;;;;54.42;51.63;;;;;;;;;;5080680;28;20198;-82
2023/01/15 03:05:19;;;;;;;59.47;56.20;;;;;;;;;;5082221;28;20244;-81
2023/01/15 03:07:48;;;;;;;56.63;53.50;;;;;;;;;;5081727;28;20226;-81
2023/01/15 03:10:15;;;;;;;53.80;50.80;;;;;;;;;;5082442;28;20210;-82
2023/01/15 03:13:06;;;;;;;55.00;52.17;;;;;;;;;;5082300;28;20230;-81
2023/01/15 03:18:26;;;;;;;54.80;51.90;;;;;;;;;;5096136;28;20201;-81
2023/01/15 03:20:56;;;;;;;53.25;50.42;;;;;;;;;;5095002;28;20475;-81
2023/01/15 03:23:24;;;;;;;54.53;51.53;;;;;;;;;;5090982;28;20208;-81
2023/01/15 03:25:52;;;;;;;52.88;50.08;;;;;;;;;;5083250;28;20206;-81
2023/01/15 03:28:22;;;;;;;52.75;49.83;;;;;;;;;;5080576;28;20279;-81
2023/01/15 03:30:50;;;;;;;49.22;46.38;;;;;;;;;;5082195;28;20201;-82
2023/01/15 03:33:17;;;;;;;47.35;44.85;;;;;;;;;;5082057;28;20261;-81
2023/01/15 03:35:47;;;;;;;45.70;43.20;;;;;;;;;;5082926;28;20203;-81
2023/01/15 03:38:16;;;;;;;48.60;45.80;;;;;;;;;;5085296;28;20212;-81
2023/01/15 03:40:49;;;;;;;46.72;44.22;;;;;;;;;;5087201;28;20457;-81
2023/01/15 03:46:04;;;;;;;45.30;42.80;;;;;;;;;;5083052;28;20274;-82
2023/01/15 03:48:35;;;;;;;42.17;39.77;;;;;;;;;;5080233;28;20199;-81
2023/01/15 03:51:08;;;;;;;44.80;42.33;;;;;;;;;;5081604;28;20436;-79
2023/01/15 03:53:41;;;;;;;44.15;41.38;;;;;;;;;;5082388;28;20666;-81
2023/01/15 03:56:11;;;;;;;43.10;40.60;;;;;;;;;;5081111;28;20222;-80
2023/01/15 03:58:40;;;;;;;40.60;38.33;;;;;;;;;;5082309;28;21005;-80
2023/01/15 04:01:10;;;;;;;38.28;35.92;;;;;;;;;;5084145;28;20961;-79
2023/01/15 04:03:38;;;;;;;38.70;36.60;;;;;;;;;;5080602;28;20690;-80
2023/01/15 04:06:05;;;;;;;38.97;36.88;;;;;;;;;;5083113;28;20225;-81
2023/01/15 04:08:34;;;;;;;37.30;35.20;;;;;;;;;;5082450;28;20202;-80
2023/01/15 04:11:02;;;;;;;37.37;35.10;;;;;;;;;;5080402;28;20444;-80
2023/01/15 04:13:29;;;;;;;35.40;33.40;;;;;;;;;;5082837;28;20503;-81
2023/01/15 04:15:56;;;;;;;35.70;33.42;;;;;;;;;;5081028;28;20224;-80
2023/01/15 04:18:25;;;;;;;32.72;30.75;;;;;;;;;;5082234;28;20267;-80
2023/01/15 04:20:53;;;;;;;35.28;32.58;;;;;;;;;;5081787;28;20210;-80
2023/01/15 04:23:20;;;;;;;35.40;33.23;;;;;;;;;;5079853;28;20209;-80
2023/01/15 04:25:47;;;;;;;35.70;33.58;;;;;;;;;;5082857;28;20410;-80
2023/01/15 04:28:14;;;;;;;35.40;33.35;;;;;;;;;;5082708;28;20198;-80
2023/01/15 04:30:42;;;;;;;35.13;32.70;;;;;;;;;;5082265;28;20960;-81
2023/01/15 04:33:09;;;;;;;32.67;30.88;;;;;;;;;;5080591;28;20239;-81
2023/01/15 04:35:38;;;;;;;33.45;31.55;;;;;;;;;;5079948;28;20210;-80
2023/01/15 04:38:05;;;;;;;34.05;32.10;;;;;;;;;;5081855;28;20286;-80
2023/01/15 04:46:01;;;;;;;33.17;31.38;;;;;;;;;;5078842;28;20220;-80
2023/01/15 04:48:30;;;;;;;32.85;30.85;;;;;;;;;;5080270;28;20204;-80
2023/01/15 04:51:02;;;;;;;32.17;29.92;;;;;;;;;;5079618;28;20272;-79
2023/01/15 04:53:29;;;;;;;30.73;28.88;;;;;;;;;;5081805;28;20225;-80
2023/01/15 04:56:00;;;;;;;32.63;30.63;;;;;;;;;;5086263;28;20205;-80
2023/01/15 04:58:27;;;;;;;32.47;30.48;;;;;;;;;;5084080;28;20805;-80
2023/01/15 05:00:54;;;;;;;33.10;31.00;;;;;;;;;;5082209;28;20209;-79
2023/01/15 05:03:21;;;;;;;31.58;29.75;;;;;;;;;;5081660;28;20679;-78
2023/01/15 05:05:49;;;;;;;29.30;27.60;;;;;;;;;;5080973;28;20236;-80
2023/01/15 05:08:17;;;;;;;30.60;28.90;;;;;;;;;;5080249;28;20301;-79
2023/01/15 05:10:44;;;;;;;31.45;29.55;;;;;;;;;;5081386;28;20201;-80
2023/01/15 05:13:11;;;;;;;30.50;28.70;;;;;;;;;;5080770;28;20230;-79
2023/01/15 05:15:41;;;;;;;30.63;28.83;;;;;;;;;;5080942;28;20210;-79
2023/01/15 05:18:08;;;;;;;31.13;29.33;;;;;;;;;;5080742;28;20292;-81
2023/01/15 05:20:36;;;;;;;29.27;27.58;;;;;;;;;;5080113;28;20298;-80
2023/01/15 05:23:03;;;;;;;30.08;28.50;;;;;;;;;;5080384;28;20205;-80
2023/01/15 05:25:32;;;;;;;29.88;28.02;;;;;;;;;;5080883;28;20209;-79
2023/01/15 05:27:59;;;;;;;29.85;28.15;;;;;;;;;;5080736;28;20225;-80
2023/01/15 05:30:26;;;;;;;30.88;28.63;;;;;;;;;;5079716;28;20567;-80
2023/01/15 05:32:54;;;;;;;34.83;26.65;;;;;;;;;;5083186;28;20243;-81
2023/01/15 05:35:21;;;;;;;29.15;27.55;;;;;;;;;;5082187;28;20260;-78
2023/01/15 05:37:48;;;;;;;31.33;28.85;;;;;;;;;;5082831;28;20738;-80
2023/01/15 05:40:15;;;;;;;27.42;26.02;;;;;;;;;;5082934;28;20256;-80
2023/01/15 05:42:43;;;;;;;27.13;25.63;;;;;;;;;;5081843;28;20202;-79
2023/01/15 05:45:11;;;;;;;24.08;22.77;;;;;;;;;;5081661;28;20206;-80
2023/01/15 05:47:39;;;;;;;22.30;21.00;;;;;;;;;;5081224;28;20226;-79
2023/01/15 05:50:06;;;;;;;22.02;20.92;;;;;;;;;;5082797;28;20634;-79
2023/01/15 05:52:33;;;;;;;22.08;20.67;;;;;;;;;;5081264;28;20251;-79
2023/01/15 05:55:00;;;;;;;21.60;20.13;;;;;;;;;;5083375;28;20209;-79
2023/01/15 05:57:27;;;;;;;20.27;19.00;;;;;;;;;;5084113;28;20225;-80
2023/01/15 05:59:56;;;;;;;20.08;18.88;;;;;;;;;;5082908;28;20786;-79
2023/01/15 06:02:23;;;;;;;19.85;18.65;;;;;;;;;;5081913;28;20206;-79
2023/01/15 06:04:50;;;;;;;19.73;18.47;;;;;;;;;;5084983;28;20228;-78
2023/01/15 06:07:17;;;;;;;19.83;18.80;;;;;;;;;;5084426;28;20488;-79
2023/01/15 06:09:44;;;;;;;20.02;18.30;;;;;;;;;;5081386;28;20209;-79
2023/01/15 06:12:11;;;;;;;20.10;18.90;;;;;;;;;;5086867;28;20206;-79
2023/01/15 06:14:38;;;;;;;19.43;18.43;;;;;;;;;;5085535;28;20206;-78
2023/01/15 06:17:06;;;;;;;21.03;20.03;;;;;;;;;;5081540;28;20467;-79
2023/01/15 06:19:33;;;;;;;19.40;18.40;;;;;;;;;;5081392;28;20432;-79
2023/01/15 06:22:02;;;;;;;18.73;17.83;;;;;;;;;;5084138;28;20206;-78
2023/01/15 06:24:29;;;;;;;18.42;17.33;;;;;;;;;;5082683;28;20267;-79
2023/01/15 06:26:56;;;;;;;19.20;17.95;;;;;;;;;;5082360;28;20275;-79
2023/01/15 06:29:23;;;;;;;18.83;17.70;;;;;;;;;;5083769;28;20214;-79
2023/01/15 06:31:50;;;;;;;19.23;18.08;;;;;;;;;;5084179;28;20226;-79
2023/01/15 06:34:19;;;;;;;18.08;17.02;;;;;;;;;;5084046;28;20259;-79
2023/01/15 06:36:46;;;;;;;17.98;16.95;;;;;;;;;;5082116;28;20227;-78
2023/01/15 06:39:13;;;;;;;17.90;16.95;;;;;;;;;;5083124;28;20209;-79
2023/01/15 06:47:26;;;;;;;18.88;17.88;;;;;;;;;;5066788;28;20236;-79
2023/01/15 06:49:56;;;;;;;18.27;17.38;;;;;;;;;;5078772;28;20307;-79
2023/01/15 06:52:24;;;;;;;17.55;16.60;;;;;;;;;;5079473;28;20204;-80
2023/01/15 06:54:51;;;;;;;18.33;17.33;;;;;;;;;;5077968;28;20243;-80
2023/01/15 06:57:18;;;;;;;18.25;17.23;;;;;;;;;;5079074;28;20561;-80
2023/01/15 06:59:45;;;;;;;17.75;16.65;;;;;;;;;;5078925;28;20210;-78
2023/01/15 07:02:12;;;;;;;17.90;17.00;;;;;;;;;;5079391;28;20199;-78
2023/01/15 07:04:39;;;;;;;18.67;17.67;;;;;;;;;;5078319;28;20205;-79
2023/01/15 07:07:08;;;;;;;17.88;17.08;;;;;;;;;;5079976;28;20503;-80
2023/01/15 07:09:35;;;;;;;17.42;16.42;;;;;;;;;;5080016;28;20203;-78
2023/01/15 07:12:02;;;;;;;16.95;16.05;;;;;;;;;;5081412;28;20254;-78
2023/01/15 07:14:30;;;;;;;17.20;16.15;;;;;;;;;;5077959;28;20634;-79
2023/01/15 07:16:58;;;;;;;17.98;16.73;;;;;;;;;;5078636;28;20251;-79
2023/01/15 07:19:25;;;;;;;18.13;17.00;;;;;;;;;;5079933;28;20212;-80
2023/01/15 07:21:51;;;;;;;17.70;16.65;;;;;;;;;;5079736;28;20214;-79
2023/01/15 07:24:20;;;;;;;17.83;16.90;;;;;;;;;;5080652;28;20728;-79
2023/01/15 07:26:47;;;;;;;17.10;16.20;;;;;;;;;;5081479;28;20221;-80
2023/01/15 07:29:14;;;;;;;18.17;16.87;;;;;;;;;;5080959;28;20205;-80
2023/01/15 07:31:41;;;;;;;16.77;16.05;;;;;;;;;;5080222;28;20457;-80
2023/01/15 07:34:08;;;;;;;16.52;15.73;;;;;;;;;;5081634;28;20229;-79
2023/01/15 07:36:35;;;;;;;17.55;16.60;;;;;;;;;;5076293;28;20230;-77
2023/01/15 07:39:04;;;;;;;19.10;17.58;;;;;;;;;;5074958;28;20210;-77
2023/01/15 07:49:48;;;;;;;18.83;17.13;;;;;;;;;;5074295;28;20268;-77
2023/01/15 07:52:15;;;;;;;17.92;16.38;;;;;;;;;;5074293;28;20455;-79
2023/01/15 07:54:42;;;;;;;17.63;16.73;;;;;;;;;;5074579;28;20319;-78
2023/01/15 07:57:11;;;;;;;17.15;16.15;;;;;;;;;;5074393;28;20708;-78
2023/01/15 07:59:38;;;;;;;17.30;16.50;;;;;;;;;;5076175;28;20235;-78
2023/01/15 08:02:05;;;;;;;17.45;16.48;;;;;;;;;;5078643;28;20194;-79
2023/01/15 08:04:32;;;;;;;19.60;17.60;;;;;;;;;;5077244;28;20367;-79
2023/01/15 08:07:00;;;;;;;17.40;16.50;;;;;;;;;;5075050;28;20636;-83
2023/01/15 08:09:27;;;;;;;18.90;17.73;;;;;;;;;;5074320;28;20674;-78
2023/01/15 08:17:25;;;;;;;18.73;17.20;;;;;;;;;;5077535;28;20309;-78
2023/01/15 08:19:52;;;;;;;16.90;16.10;;;;;;;;;;5078379;28;20242;-76
2023/01/15 08:22:19;;;;;;;17.23;16.20;;;;;;;;;;5076871;28;20213;-78
2023/01/15 08:24:46;;;;;;;17.55;16.65;;;;;;;;;;5079285;28;20228;-78
2023/01/15 08:27:13;;;;;;;17.80;16.87;;;;;;;;;;5076195;28;20226;-78
2023/01/15 08:29:42;;;;;;;17.75;16.60;;;;;;;;;;5078338;28;20502;-78
2023/01/15 08:32:09;;;;;;;18.17;16.98;;;;;;;;;;5077669;28;20215;-78
2023/01/15 08:34:36;;;;;;;18.35;17.13;;;;;;;;;;5074975;28;20222;-77
2023/01/15 08:37:03;;;;;;;19.13;17.55;;;;;;;;;;5074626;28;20250;-77
2023/01/15 08:39:30;;;;;;;17.30;16.48;;;;;;;;;;5076072;28;20202;-78
2023/01/15 08:41:57;;;;;;;17.38;16.27;;;;;;;;;;5076246;28;20206;-79
2023/01/15 08:44:25;;;;;;;17.27;16.27;;;;;;;;;;5075401;28;20197;-79
2023/01/15 08:46:53;;;;;;;17.50;16.50;;;;;;;;;;5076730;28;20464;-79
2023/01/15 08:49:21;;;;;;;17.30;16.40;;;;;;;;;;5078764;28;20209;-81
2023/01/15 08:51:50;;;;;;;17.13;16.33;;;;;;;;;;5077783;28;20205;-85
2023/01/15 08:54:17;;;;;;;18.35;17.40;;;;;;;;;;5077688;28;20480;-81
2023/01/15 08:56:45;;;;;;;17.83;16.92;;;;;;;;;;5077573;28;20225;-82
2023/01/15 08:59:12;;;;;;;18.00;17.00;;;;;;;;;;5080026;28;20275;-81
2023/01/15 09:01:39;;;;;;;18.80;17.80;;;;;;;;;;5079954;28;20442;-83
2023/01/15 09:04:08;;;;;;;19.65;18.65;;;;;;;;;;5080339;28;20941;-82
2023/01/15 09:06:35;;;;;;;21.20;19.27;;;;;;;;;;5080269;28;20240;-82
2023/01/15 09:09:02;;;;;;;18.97;17.87;;;;;;;;;;5079950;28;20628;-83
2023/01/15 09:11:29;;;;;;;19.60;18.60;;;;;;;;;;5079556;28;20434;-82
2023/01/15 09:13:56;;;;;;;19.67;18.42;;;;;;;;;;5080476;28;20751;-82
2023/01/15 09:16:25;;;;;;;18.20;17.30;;;;;;;;;;5078073;28;20230;-83
2023/01/15 09:18:52;;;;;;;18.30;17.20;;;;;;;;;;5081028;28;20231;-83
2023/01/15 09:21:21;;;;;;;19.02;17.92;;;;;;;;;;5080410;28;20440;-83
2023/01/15 09:23:48;;;;;;;18.50;17.50;;;;;;;;;;5077905;28;20195;-84
2023/01/15 09:26:26;;;;;;;18.02;17.13;;;;;;;;;;5078930;28;20472;-82
2023/01/15 09:28:53;;;;;;;17.92;17.02;;;;;;;;;;5080173;28;20198;-82
2023/01/15 09:31:20;;;;;;;19.35;17.80;;;;;;;;;;5077522;28;20210;-83
2023/01/15 09:33:47;;;;;;;18.50;17.38;;;;;;;;;;5077053;28;20579;-82
2023/01/15 09:36:18;;;;;;;17.70;16.90;;;;;;;;;;5079591;28;20233;-82
2023/01/15 09:38:46;;;;;;;19.83;18.38;;;;;;;;;;5078780;28;20246;-83
2023/01/15 09:44:00;;;;;;;19.10;17.75;;;;;;;;;;5080966;28;20194;-82
2023/01/15 09:46:32;;;;;;;18.27;17.48;;;;;;;;;;5079434;28;20251;-82
2023/01/15 09:49:05;;;;;;;19.37;18.23;;;;;;;;;;5079625;28;20229;-82
2023/01/15 09:51:35;;;;;;;19.20;18.20;;;;;;;;;;5080154;28;20421;-83
2023/01/15 09:54:20;;;;;;;19.25;18.23;;;;;;;;;;5079822;28;20229;-82
2023/01/15 09:56:49;;;;;;;19.13;18.13;;;;;;;;;;5081055;28;20255;-82
2023/01/15 09:59:20;;;;;;;20.57;18.37;;;;;;;;;;5080730;28;20202;-83
2023/01/15 10:01:47;;;;;;;17.80;16.85;;;;;;;;;;5076865;28;20449;-78
2023/01/15 10:04:19;;;;;;;18.67;17.45;;;;;;;;;;5076184;28;20677;-78
2023/01/15 10:06:49;;;;;;;28.05;19.10;;;;;;;;;;5076376;28;20741;-79
2023/01/15 10:09:18;;;;;;;19.60;17.90;;;;;;;;;;5076876;28;20696;-78
2023/01/15 10:14:38;;;;;;;20.17;19.17;;;;;;;;;;5075748;28;20212;-78
2023/01/15 10:17:06;;;;;;;19.20;18.20;;;;;;;;;;5076915;28;20237;-78
2023/01/15 10:19:33;;;;;;;19.05;18.05;;;;;;;;;;5080243;28;20213;-79
2023/01/15 10:22:04;;;;;;;19.02;17.92;;;;;;;;;;5082247;28;20268;-78
2023/01/15 10:24:36;;;;;;;20.08;18.77;;;;;;;;;;5081515;28;20234;-79
2023/01/15 10:27:07;;;;;;;19.80;18.52;;;;;;;;;;5077611;28;20710;-79
2023/01/15 10:29:37;;;;;;;18.77;17.77;;;;;;;;;;5079220;28;20194;-78
2023/01/15 10:32:10;;;;;;;19.75;18.55;;;;;;;;;;5098982;28;20254;-78
2023/01/15 10:34:57;;;;;;;18.80;17.70;;;;;;;;;;5097891;28;20233;-77
2023/01/15 10:37:28;;;;;;;19.10;17.85;;;;;;;;;;5098996;28;20233;-77
2023/01/15 10:40:04;;;;;;;20.42;18.90;;;;;;;;;;5098200;28;20215;-77
2023/01/15 10:42:36;;;;;;;19.13;18.13;;;;;;;;;;5098031;28;20185;-79
2023/01/15 10:45:07;;;;;;;19.50;18.50;;;;;;;;;;5099815;28;20424;-77
2023/01/15 10:47:35;;;;;;;20.88;19.67;;;;;;;;;;5098268;28;20226;-78
2023/01/15 10:50:03;;;;;;;19.30;18.30;;;;;;;;;;5097803;28;20261;-77
2023/01/15 10:52:32;;;;;;;19.73;18.63;;;;;;;;;;5097464;28;20666;-77
2023/01/15 10:55:04;;;;;;;19.95;18.92;;;;;;;;;;5097284;28;20229;-86
2023/01/15 10:57:37;;;;;;;22.07;20.63;;;;;;;;;;5099457;28;20221;-78
2023/01/15 11:00:06;;;;;;;19.75;18.52;;;;;;;;;;5097442;28;20915;-76
2023/01/15 11:02:35;;;;;;;20.55;19.45;;;;;;;;;;5096481;28;20752;-78
2023/01/15 11:05:03;;;;;;;18.95;17.95;;;;;;;;;;5095786;28;20202;-77
2023/01/15 11:07:36;;;;;;;19.63;18.60;;;;;;;;;;5095086;28;20232;-76
2023/01/15 11:10:07;;;;;;;20.13;19.05;;;;;;;;;;5096642;28;20283;-78
2023/01/15 11:20:59;;;;;;;20.00;18.90;;;;;;;;;;5099740;28;20177;-81
2023/01/15 11:23:26;;;;;;;20.27;19.07;;;;;;;;;;5099299;28;20228;-82
2023/01/15 11:25:54;;;;;;;19.00;18.00;;;;;;;;;;5100321;28;20418;-82
2023/01/15 11:28:31;;;;;;;19.40;18.20;;;;;;;;;;5100055;28;20236;-82
2023/01/15 11:30:59;;;;;;;19.63;18.43;;;;;;;;;;5100470;28;20186;-82
2023/01/15 11:33:27;;;;;;;20.40;18.70;;;;;;;;;;5099876;28;20436;-83
2023/01/15 11:35:57;;;;;;;19.30;18.20;;;;;;;;;;5101172;28;20223;-82
2023/01/15 11:38:24;;;;;;;20.17;18.50;;;;;;;;;;5101225;28;20684;-82
2023/01/15 11:40:52;;;;;;;19.50;18.25;;;;;;;;;;5101093;28;20209;-82
2023/01/15 11:51:40;;;;;;;21.35;20.02;;;;;;;;;;5101626;28;20207;-84
2023/01/15 11:54:09;;;;;;;20.47;19.30;;;;;;;;;;5102346;28;20594;-83
2023/01/15 11:56:36;;;;;;;20.57;19.37;;;;;;;;;;5100661;28;20459;-83
2023/01/15 11:59:04;;;;;;;19.70;18.40;;;;;;;;;;5102564;28;20505;-84
2023/01/15 12:01:34;;;;;;;20.50;19.20;;;;;;;;;;5101531;28;20461;-83
2023/01/15 12:04:03;;;;;;;20.37;19.13;;;;;;;;;;5100226;28;20791;-84
2023/01/15 12:06:31;;;;;;;20.30;18.88;;;;;;;;;;5102141;28;20464;-84
2023/01/15 12:09:00;;;;;;;20.60;19.20;;;;;;;;;;5101104;28;20193;-80
2023/01/15 12:11:32;;;;;;;20.13;18.70;;;;;;;;;;5101396;28;20611;-82
2023/01/15 12:14:07;;;;;;;19.95;18.40;;;;;;;;;;5103812;28;20414;-83
2023/01/15 12:16:39;;;;;;;20.90;19.57;;;;;;;;;;5100844;28;20223;-79
2023/01/15 12:19:12;;;;;;;20.10;19.00;;;;;;;;;;5101408;28;20418;-85
2023/01/15 12:21:48;;;;;;;20.73;19.53;;;;;;;;;;5100577;28;20480;-79
2023/01/15 12:24:26;;;;;;;20.07;18.90;;;;;;;;;;5098958;28;20414;-84
2023/01/15 12:27:00;;;;;;;19.90;18.70;;;;;;;;;;5098930;28;20483;-81
2023/01/15 12:29:28;;;;;;;19.80;18.80;;;;;;;;;;5098107;28;20438;-81
2023/01/15 12:32:00;;;;;;;20.00;18.80;;;;;;;;;;5097407;28;20488;-83
2023/01/15 12:34:32;;;;;;;21.20;20.00;;;;;;;;;;5098901;28;20454;-82
2023/01/15 12:37:00;;;;;;;21.43;19.77;;;;;;;;;;5099060;28;21036;-82
2023/01/15 12:39:29;;;;;;;20.83;19.63;;;;;;;;;;5098877;28;20870;-82
2023/01/15 12:45:03;;;;;;;20.27;19.03;;;;;;;;;;5110638;28;20451;-84
2023/01/15 12:47:35;;;;;;;21.30;19.80;;;;;;;;;;5110856;28;20467;-83
2023/01/15 12:50:05;;;;;;;19.87;18.87;;;;;;;;;;5099772;28;20489;-81
2023/01/15 12:52:34;;;;;;;20.33;19.07;;;;;;;;;;5099416;28;20437;-82
2023/01/15 12:55:04;;;;;;;21.60;20.40;;;;;;;;;;5097478;28;20487;-82
2023/01/15 12:57:35;;;;;;;20.03;18.73;;;;;;;;;;5096955;28;20978;-83
2023/01/15 13:00:07;;;;;;;20.43;19.20;;;;;;;;;;5097201;28;20410;-82
2023/01/15 13:02:39;;;;;;;20.33;18.87;;;;;;;;;;5097667;28;20449;-83
2023/01/15 13:05:14;;;;;;;21.10;19.70;;;;;;;;;;5096149;28;20477;-85
2023/01/15 13:07:43;;;;;;;20.00;18.90;;;;;;;;;;5096299;28;20454;-83
2023/01/15 13:10:13;;;;;;;19.85;18.85;;;;;;;;;;5096912;28;20543;-83
2023/01/15 13:12:40;;;;;;;20.77;19.47;;;;;;;;;;5096733;28;20662;-85
2023/01/15 13:15:08;;;;;;;19.80;18.60;;;;;;;;;;5099982;28;20458;-83
2023/01/15 13:17:52;;;;;;;20.03;18.73;;;;;;;;;;5100426;28;20484;-79
2023/01/15 13:20:28;;;;;;;20.67;19.47;;;;;;;;;;5102880;28;20517;-82
2023/01/15 13:22:57;;;;;;;19.52;18.33;;;;;;;;;;5101107;28;20479;-84
2023/01/15 13:25:33;;;;;;;19.63;18.53;;;;;;;;;;5102694;28;20198;-83
2023/01/15 13:28:07;;;;;;;20.57;19.40;;;;;;;;;;5101293;28;20484;-83
2023/01/15 13:30:42;;;;;;;21.20;19.90;;;;;;;;;;5101683;28;20430;-82
2023/01/15 13:33:17;;;;;;;20.10;19.00;;;;;;;;;;5100550;28;20466;-83
2023/01/15 13:35:47;;;;;;;20.15;19.05;;;;;;;;;;5101674;28;20209;-83
2023/01/15 13:38:17;;;;;;;20.55;19.08;;;;;;;;;;5100306;28;20232;-82
2023/01/15 13:40:49;;;;;;;20.67;19.17;;;;;;;;;;5100670;28;20231;-82
2023/01/15 13:43:22;;;;;;;20.00;18.90;;;;;;;;;;5099780;28;20316;-83
2023/01/15 13:45:50;;;;;;;19.70;18.60;;;;;;;;;;5100224;28;20440;-83
2023/01/15 13:48:22;;;;;;;20.00;18.70;;;;;;;;;;5100815;28;20429;-81
2023/01/15 13:50:52;;;;;;;19.67;18.52;;;;;;;;;;5100607;28;20414;-82
2023/01/15 13:53:25;;;;;;;19.70;18.67;;;;;;;;;;5099151;28;20278;-83
2023/01/15 13:55:54;;;;;;;19.77;18.67;;;;;;;;;;5100157;28;20475;-85
2023/01/15 13:58:23;;;;;;;19.83;18.87;;;;;;;;;;5100016;28;20454;-83
2023/01/15 14:01:00;;;;;;;20.02;18.83;;;;;;;;;;5099896;28;20449;-83
2023/01/15 14:03:30;;;;;;;20.00;19.00;;;;;;;;;;5099237;28;20596;-83
2023/01/15 14:05:58;;;;;;;20.27;19.10;;;;;;;;;;5099171;28;20436;-83
2023/01/15 14:08:26;;;;;;;20.65;19.45;;;;;;;;;;5099231;28;20210;-82
2023/01/15 14:10:54;;;;;;;20.37;19.07;;;;;;;;;;5099773;28;20194;-82
2023/01/15 14:13:41;;;;;;;19.50;18.40;;;;;;;;;;5098578;28;20488;-82
2023/01/15 14:16:13;;;;;;;19.38;18.10;;;;;;;;;;5099566;28;20233;-83
2023/01/15 14:18:50;;;;;;;20.43;19.07;;;;;;;;;;5099425;28;20194;-83
2023/01/15 14:21:23;;;;;;;21.37;19.90;;;;;;;;;;5098769;28;20920;-83
2023/01/15 14:23:57;;;;;;;20.67;19.30;;;;;;;;;;5098558;28;20940;-83
2023/01/15 14:26:29;;;;;;;19.67;18.67;;;;;;;;;;5099279;28;20230;-84
2023/01/15 14:29:02;;;;;;;19.90;18.90;;;;;;;;;;5098571;28;20451;-83
2023/01/15 14:31:36;;;;;;;21.15;19.95;;;;;;;;;;5099192;28;20478;-83
2023/01/15 14:34:14;;;;;;;21.03;19.67;;;;;;;;;;5098736;28;20198;-83
2023/01/15 14:36:46;;;;;;;21.35;19.92;;;;;;;;;;5098122;28;20483;-83
2023/01/15 14:39:23;;;;;;;21.63;20.10;;;;;;;;;;5098724;28;20190;-84
2023/01/15 14:44:42;;;;;;;20.90;19.40;;;;;;;;;;5098164;28;20473;-82
2023/01/15 14:47:15;;;;;;;20.67;19.67;;;;;;;;;;5099078;28;20558;-83
2023/01/15 14:49:48;;;;;;;20.83;19.80;;;;;;;;;;5098198;28;20209;-84
2023/01/15 14:52:16;;;;;;;21.05;19.85;;;;;;;;;;5102649;28;20204;-83
2023/01/15 14:54:44;;;;;;;373.48;250.48;;;;;;;;;;5099438;28;20602;-84
2023/01/15 14:57:14;;;;;;;404.05;119.18;;;;;;;;;;5099409;28;20221;-81
2023/01/15 14:59:45;;;;;;;275.63;90.95;;;;;;;;;;5100501;28;20246;-82
2023/01/15 15:02:15;;;;;;;20.40;19.50;;;;;;;;;;5099621;28;20198;-82
2023/01/15 15:04:45;;;;;;;19.90;18.90;;;;;;;;;;5100176;28;20205;-84
2023/01/15 15:07:13;;;;;;;19.88;18.90;;;;;;;;;;5098666;28;20778;-84
2023/01/15 15:09:41;;;;;;;398.80;133.13;;;;;;;;;;5098888;28;20193;-84
2023/01/15 15:12:20;;;;;;;20.20;18.98;;;;;;;;;;5098416;28;20572;-83
2023/01/15 15:14:52;;;;;;;20.20;19.10;;;;;;;;;;5100834;28;20190;-82
2023/01/15 15:17:24;;;;;;;320.45;175.02;;;;;;;;;;5099220;28;20217;-83
2023/01/15 15:19:58;;;;;;;328.67;120.05;;;;;;;;;;5099191;28;20230;-84
2023/01/15 15:22:28;;;;;;;233.77;92.53;;;;;;;;;;5097691;28;20264;-83
2023/01/15 15:24:55;;;;;;;297.60;100.60;;;;;;;;;;5097931;28;20208;-83
2023/01/15 15:27:23;;;;;;;410.67;172.80;;;;;;;;;;5098091;28;20294;-82
2023/01/15 15:29:50;;;;;;;467.42;297.15;;;;;;;;;;5099167;28;20233;-82
2023/01/15 15:32:19;;;;;;;425.25;197.73;;;;;;;;;;5098872;28;20209;-81